Time;durP1;ratioP1;P1;durP2;ratioP2;P2;SDS_P1;SDS_P2;PMS_P1;PMS_P2;Temp;Humidity;BMP_temperature;BMP_pressure;BME280_temperature;BME280_humidity;BME280_pressure;Samples;Min_cycle;Max_cycle;Signal;HPM_P1;HPM_P2
2023/02/19 00:02:34;;;;;;;;;;;;;;;18.14;61.58;100738.91;2287224;76;50333;-74
2023/02/19 00:05:36;;;;;;;;;;;;;;;18.10;61.68;100743.45;2271247;77;52302;-74
2023/02/19 00:08:37;;;;;;;;;;;;;;;18.11;61.81;100740.61;2280347;76;52394;-74
2023/02/19 00:11:39;;;;;;;;;;;;;;;18.13;61.79;100735.88;2301308;76;52492;-74
2023/02/19 00:14:41;;;;;;;;;;;;;;;18.16;61.77;100747.61;2335473;76;51495;-73
2023/02/19 00:17:42;;;;;;;;;;;;;;;18.15;61.79;100743.75;2321461;75;51529;-74
2023/02/19 00:20:44;;;;;;;;;;;;;;;18.13;61.74;100741.75;2321334;75;51499;-74
2023/02/19 00:23:47;;;;;;;;;;;;;;;18.10;61.80;100744.28;2308855;76;52713;-73
2023/02/19 00:26:48;;;;;;;;;;;;;;;18.08;61.91;100738.77;2320468;75;51532;-74
2023/02/19 00:29:51;;;;;;;;;;;;;;;18.06;61.87;100727.75;2315377;75;50446;-74
2023/02/19 00:32:54;;;;;;;;;;;;;;;18.08;61.96;100736.09;2314406;76;51579;-74
2023/02/19 00:35:57;;;;;;;;;;;;;;;18.10;61.97;100732.73;2294697;76;51202;-75
2023/02/19 00:38:59;;;;;;;;;;;;;;;18.06;61.85;100723.73;2319127;75;50340;-74
2023/02/19 00:42:00;;;;;;;;;;;;;;;18.07;62.03;100721.87;2321008;75;50604;-72
2023/02/19 00:45:02;;;;;;;;;;;;;;;18.12;62.08;100710.64;2329483;76;49971;-76
2023/02/19 00:48:03;;;;;;;;;;;;;;;18.17;61.99;100713.61;2298691;76;51647;-74
2023/02/19 00:51:05;;;;;;;;;;;;;;;18.18;62.00;100705.90;2326498;76;50646;-74
2023/02/19 00:54:07;;;;;;;;;;;;;;;18.21;62.06;100709.07;2321272;76;50330;-75
2023/02/19 00:57:08;;;;;;;;;;;;;;;18.19;62.02;100715.11;2335810;75;50642;-74
2023/02/19 01:00:10;;;;;;;;;;;;;;;18.20;62.04;100719.95;2292976;76;51699;-74
2023/02/19 01:03:12;;;;;;;;;;;;;;;18.18;61.98;100708.58;2324987;76;50338;-74
2023/02/19 01:06:14;;;;;;;;;;;;;;;18.15;61.99;100700.91;2332832;76;50410;-74
2023/02/19 01:09:16;;;;;;;;;;;;;;;18.12;62.01;100702.61;2326929;75;51545;-75
2023/02/19 01:12:17;;;;;;;;;;;;;;;18.10;62.09;100699.27;2301190;76;52475;-74
2023/02/19 01:15:19;;;;;;;;;;;;;;;18.09;62.05;100694.94;2325076;75;50378;-73
2023/02/19 01:18:21;;;;;;;;;;;;;;;18.06;62.20;100695.61;2332898;76;50249;-73
2023/02/19 01:21:23;;;;;;;;;;;;;;;18.06;62.24;100691.59;2327549;75;50680;-74
2023/02/19 01:24:24;;;;;;;;;;;;;;;18.07;62.24;100683.05;2335572;76;51197;-74
2023/02/19 01:27:26;;;;;;;;;;;;;;;18.07;62.22;100677.70;2321590;76;50316;-74
2023/02/19 01:30:28;;;;;;;;;;;;;;;18.08;62.13;100670.49;2311856;75;50164;-75
2023/02/19 01:33:29;;;;;;;;;;;;;;;18.04;62.16;100647.27;2314874;76;50610;-74
2023/02/19 01:36:32;;;;;;;;;;;;;;;18.02;62.14;100634.05;2308435;76;51537;-74
2023/02/19 01:39:33;;;;;;;;;;;;;;;18.02;62.10;100640.75;2321137;75;52641;-75
2023/02/19 01:42:35;;;;;;;;;;;;;;;18.01;62.19;100645.78;2334478;76;50760;-75
2023/02/19 01:45:38;;;;;;;;;;;;;;;18.01;62.19;100655.16;2321353;75;52368;-75
2023/02/19 01:48:39;;;;;;;;;;;;;;;18.00;62.22;100645.44;2321400;75;50436;-74
2023/02/19 01:51:43;;;;;;;;;;;;;;;18.01;62.36;100644.95;2294555;76;50090;-75
2023/02/19 01:54:44;;;;;;;;;;;;;;;18.03;62.34;100646.45;2280673;77;50710;-75
2023/02/19 01:57:46;;;;;;;;;;;;;;;18.05;62.26;100631.52;2303780;75;51414;-75
2023/02/19 02:00:48;;;;;;;;;;;;;;;18.05;62.30;100631.52;2321440;76;50358;-75
2023/02/19 02:03:50;;;;;;;;;;;;;;;18.04;62.30;100625.34;2308858;76;51019;-75
2023/02/19 02:06:53;;;;;;;;;;;;;;;18.02;62.21;100624.68;2312254;76;50140;-75
2023/02/19 02:13:14;;;;;;;;;;;;;;;18.03;62.28;100616.99;2321512;76;22408;-75
2023/02/19 02:16:22;;;;;;;;;;;;;;;18.03;62.31;100615.66;2321286;75;50300;-74
2023/02/19 02:19:26;;;;;;;;;;;;;;;18.04;62.15;100605.77;2296176;76;51499;-74
2023/02/19 02:22:37;;;;;;;;;;;;;;;18.02;62.16;100613.97;2303363;76;49985;-75
2023/02/19 02:25:46;;;;;;;;;;;;;;;18.01;62.32;100616.33;2321637;75;50792;-75
2023/02/19 02:29:05;;;;;;;;;;;;;;;18.01;62.33;100619.02;2274729;77;52601;-74
2023/02/19 02:32:08;;;;;;;;;;;;;;;18.01;62.34;100623.03;2297585;76;51396;-75
2023/02/19 02:35:10;;;;;;;;;;;;;;;18.01;62.27;100624.36;2307315;75;50887;-75
2023/02/19 02:38:12;;;;;;;;;;;;;;;18.02;62.30;100625.19;2307121;75;50035;-75
2023/02/19 02:41:14;;;;;;;;;;;;;;;18.01;62.21;100612.83;2335717;75;51663;-74
2023/02/19 02:44:15;;;;;;;;;;;;;;;17.99;62.17;100611.66;2308940;75;49502;-74
2023/02/19 02:48:02;;;;;;;;;;;;;;;18.00;62.27;100608.47;2335687;75;50418;-75
2023/02/19 02:50:22;;;;;;;;;;;;;;;18.00;62.22;100600.44;2287124;75;22908;-75
2023/02/19 02:56:48;;;;;;;;;;;;;;;18.00;62.36;100605.28;2333214;75;22292;-74
2023/02/19 02:59:49;;;;;;;;;;;;;;;17.98;62.28;100603.31;2325102;75;50658;-75
2023/02/19 03:02:51;;;;;;;;;;;;;;;17.99;62.35;100609.49;2320542;75;50667;-74
2023/02/19 03:05:53;;;;;;;;;;;;;;;17.98;62.30;100614.02;2295429;76;52491;-74
2023/02/19 03:09:09;;;;;;;;;;;;;;;17.97;62.34;100617.69;2321375;75;50274;-73
2023/02/19 03:22:18;;;;;;;;;;;;;;;17.98;62.31;100623.87;2321603;75;22317;-74
2023/02/19 03:32:08;;;;;;;;;;;;;;;17.98;62.36;100636.78;2292588;76;23441;-73
2023/02/19 03:35:11;;;;;;;;;;;;;;;17.96;62.42;100642.81;2308723;76;50696;-74
2023/02/19 03:38:17;;;;;;;;;;;;;;;17.93;62.50;100644.52;2296690;75;50731;-73
2023/02/19 03:41:25;;;;;;;;;;;;;;;17.94;62.42;100638.14;2321740;76;22304;-74
2023/02/19 03:44:45;;;;;;;;;;;;;;;17.95;62.41;100639.79;2308655;76;52547;-75
2023/02/19 03:47:48;;;;;;;;;;;;;;;17.96;62.37;100637.45;2321484;75;51548;-75
2023/02/19 03:50:51;;;;;;;;;;;;;;;17.97;62.44;100639.63;2321302;75;50056;-74
2023/02/19 03:53:55;;;;;;;;;;;;;;;17.95;62.48;100639.79;2320286;75;50423;-75
2023/02/19 03:57:15;;;;;;;;;;;;;;;17.97;62.44;100640.45;2309018;75;49696;-74
2023/02/19 04:00:17;;;;;;;;;;;;;;;17.98;62.47;100646.15;2321250;76;51502;-76
2023/02/19 04:03:36;;;;;;;;;;;;;;;17.98;62.42;100656.86;2321080;76;50363;-74
2023/02/19 04:06:37;;;;;;;;;;;;;;;17.94;62.40;100656.88;2307878;76;50695;-74
2023/02/19 04:09:41;;;;;;;;;;;;;;;17.91;62.44;100661.25;2327636;75;51040;-74
2023/02/19 04:12:43;;;;;;;;;;;;;;;17.93;62.44;100663.73;2322735;76;50774;-74
2023/02/19 04:15:45;;;;;;;;;;;;;;;17.95;62.55;100663.88;2321807;76;51478;-74
2023/02/19 04:18:47;;;;;;;;;;;;;;;17.95;62.42;100674.59;2321691;75;50680;-73
2023/02/19 04:21:49;;;;;;;;;;;;;;;17.95;62.45;100668.41;2310609;76;52739;-74
2023/02/19 04:24:51;;;;;;;;;;;;;;;17.93;62.45;100669.95;2324889;76;50707;-74
2023/02/19 04:27:53;;;;;;;;;;;;;;;17.92;62.55;100674.13;2323357;75;50808;-74
2023/02/19 04:30:54;;;;;;;;;;;;;;;17.94;62.46;100671.59;2324401;76;50470;-74
2023/02/19 04:33:56;;;;;;;;;;;;;;;17.90;62.55;100684.17;2300803;76;51757;-74
2023/02/19 04:36:58;;;;;;;;;;;;;;;17.87;62.62;100685.36;2319930;76;50638;-73
2023/02/19 04:39:59;;;;;;;;;;;;;;;17.87;62.61;100691.22;2271303;78;50435;-74
2023/02/19 04:43:01;;;;;;;;;;;;;;;17.88;62.65;100688.38;2271006;78;50374;-74
2023/02/19 04:46:02;;;;;;;;;;;;;;;17.92;62.59;100701.72;2247936;78;51638;-74
2023/02/19 04:49:04;;;;;;;;;;;;;;;17.92;62.58;100692.35;2272890;77;51435;-75
2023/02/19 04:52:06;;;;;;;;;;;;;;;17.92;62.52;100700.38;2271134;78;51578;-74
2023/02/19 04:55:07;;;;;;;;;;;;;;;17.95;62.40;100704.55;2273371;77;51491;-73
2023/02/19 04:58:09;;;;;;;;;;;;;;;17.95;62.51;100697.34;2250267;76;51746;-73
2023/02/19 05:01:11;;;;;;;;;;;;;;;17.93;62.47;100699.39;2334881;76;51452;-73
2023/02/19 05:04:12;;;;;;;;;;;;;;;17.95;62.47;100707.23;2320973;76;51562;-73
2023/02/19 05:07:14;;;;;;;;;;;;;;;17.92;62.54;100708.41;2321404;76;50328;-73
2023/02/19 05:10:16;;;;;;;;;;;;;;;17.93;62.52;100708.77;2294833;76;51116;-74
2023/02/19 05:13:17;;;;;;;;;;;;;;;17.91;62.56;100708.09;2321124;76;50544;-73
2023/02/19 05:16:19;;;;;;;;;;;;;;;17.90;62.53;100709.09;2321154;76;50674;-74
2023/02/19 05:19:20;;;;;;;;;;;;;;;17.90;62.51;100710.94;2319470;75;51532;-72
2023/02/19 05:22:22;;;;;;;;;;;;;;;17.92;62.44;100710.27;2320691;76;52374;-73
2023/02/19 05:25:23;;;;;;;;;;;;;;;17.91;62.46;100710.78;2321284;76;51415;-73
2023/02/19 05:28:27;;;;;;;;;;;;;;;17.90;62.48;100709.09;2319497;76;50192;-74
2023/02/19 05:31:28;;;;;;;;;;;;;;;17.90;62.46;100697.05;2305493;76;22402;-73
2023/02/19 05:34:30;;;;;;;;;;;;;;;17.86;62.66;100703.78;2293308;76;51068;-73
2023/02/19 05:37:32;;;;;;;;;;;;;;;17.88;62.52;100704.92;2314676;76;51439;-73
2023/02/19 05:40:33;;;;;;;;;;;;;;;17.89;62.57;100711.96;2301924;75;51566;-74
2023/02/19 05:43:35;;;;;;;;;;;;;;;17.86;62.65;100710.98;2274450;78;51436;-73
2023/02/19 05:46:36;;;;;;;;;;;;;;;17.84;62.64;100721.86;2317471;75;51492;-74
2023/02/19 05:49:38;;;;;;;;;;;;;;;17.85;62.63;100710.12;2335179;74;51456;-74
2023/02/19 05:52:40;;;;;;;;;;;;;;;17.90;62.60;100713.62;2321071;75;50266;-74
2023/02/19 05:55:41;;;;;;;;;;;;;;;17.94;62.73;100718.45;2321126;76;51478;-73
2023/02/19 05:58:43;;;;;;;;;;;;;;;17.91;62.60;100722.82;2335808;74;52402;-74
2023/02/19 06:01:44;;;;;;;;;;;;;;;17.94;62.73;100725.66;2321123;75;50082;-74
2023/02/19 06:04:46;;;;;;;;;;;;;;;17.92;62.61;100727.66;2320849;75;51432;-73
2023/02/19 06:07:49;;;;;;;;;;;;;;;17.89;63.05;100734.20;2324922;76;50730;-74
2023/02/19 06:10:50;;;;;;;;;;;;;;;17.90;62.93;100730.51;2263635;77;51222;-74
2023/02/19 06:13:52;;;;;;;;;;;;;;;17.90;63.23;100741.22;2295935;77;50757;-74
2023/02/19 06:16:54;;;;;;;;;;;;;;;17.97;62.83;100730.14;2313560;75;50780;-75
2023/02/19 06:19:55;;;;;;;;;;;;;;;17.97;62.63;100738.17;2336576;75;51525;-72
2023/02/19 06:22:57;;;;;;;;;;;;;;;17.99;62.56;100738.00;2309553;76;51651;-75
2023/02/19 06:36:46;;;;;;;;;;;;;;;;;;;;;
2023/02/19 07:05:21;;;;;;;;;;;;;;;17.93;63.43;100815.84;2225040;79;22798;-73
2023/02/19 08:32:51;;;;;;;;;;;;;;;18.01;64.18;100968.92;2014033;83;22845;-73
2023/02/19 08:36:08;;;;;;;;;;;;;;;17.99;64.10;100971.77;1987307;88;50976;-73
2023/02/19 08:39:09;;;;;;;;;;;;;;;17.98;63.87;100983.49;2008008;86;22755;-71
2023/02/19 08:42:21;;;;;;;;;;;;;;;17.97;64.07;100977.78;2059336;86;22459;-71
2023/02/19 08:45:23;;;;;;;;;;;;;;;17.94;63.79;100986.16;2032896;86;22603;-71
2023/02/19 08:48:29;;;;;;;;;;;;;;;17.92;63.74;100989.51;2017165;87;51295;-72
2023/02/19 08:51:38;;;;;;;;;;;;;;;17.91;64.73;100991.03;2042639;87;22533;-71
2023/02/19 08:54:44;;;;;;;;;;;;;;;17.92;64.63;101009.59;2038672;87;22364;-72
2023/02/19 08:57:54;;;;;;;;;;;;;;;17.91;64.59;101009.27;2051867;85;21817;-71
2023/02/19 09:01:02;;;;;;;;;;;;;;;17.90;64.52;101012.93;2073703;84;22560;-72
2023/02/19 09:05:20;;;;;;;;;;;;;;;17.87;64.48;101010.59;2154718;82;23273;-72
2023/02/19 09:08:16;;;;;;;;;;;;;;;;;;;;;
2023/02/19 09:10:53;;;;;;;;;;;;;;;17.85;64.66;101025.98;2268219;77;22682;-72
2023/02/19 09:13:56;;;;;;;;;;;;;;;17.84;64.68;101031.02;2290476;76;51589;-71
2023/02/19 09:17:02;;;;;;;;;;;;;;;17.84;64.60;101039.05;2252111;78;52414;-72
2023/02/19 09:20:12;;;;;;;;;;;;;;;17.83;64.44;101038.73;2240362;77;51629;-72
2023/02/19 09:23:43;;;;;;;;;;;;;;;;;;;;;
2023/02/19 09:33:42;;;;;;;;;;;;;;;17.86;63.95;101051.77;2114616;81;22550;-71
2023/02/19 09:36:41;;;;;;;;;;;;;;;17.88;64.07;101052.92;2108990;82;23611;-71
2023/02/19 09:39:48;;;;;;;;;;;;;;;17.90;63.81;101055.77;2149891;80;51496;-71
2023/02/19 09:49:40;;;;;;;;;;;;;;;17.89;63.89;101068.83;2107542;82;22355;-71
2023/02/19 09:52:55;;;;;;;;;;;;;;;;;;;;;
2023/02/19 10:05:58;;;;;;;;;;;;;;;17.86;63.90;101089.25;2167712;80;23168;-72
2023/02/19 10:09:34;;;;;;;;;;;;;;;17.87;63.68;101097.60;2164213;80;51728;-72
2023/02/19 10:12:43;;;;;;;;;;;;;;;17.83;63.64;101101.13;2175707;80;22672;-72
2023/02/19 10:15:48;;;;;;;;;;;;;;;17.83;63.60;101099.78;2173100;80;22812;-72
2023/02/19 10:19:03;;;;;;;;;;;;;;;17.84;63.68;101101.95;2165900;80;22410;-72
2023/02/19 10:29:26;;;;;;;;;;;;;;;17.82;63.42;101135.57;2148879;81;23191;-72
2023/02/19 10:32:41;;;;;;;;;;;;;;;;;;;;;
2023/02/19 10:36:08;;;;;;;;;;;;;;;17.90;63.10;101148.13;2193856;79;22743;-72
2023/02/19 10:42:44;;;;;;;;;;;;;;;18.00;62.73;101146.63;2103875;82;22442;-72
2023/02/19 10:46:15;;;;;;;;;;;;;;;17.97;62.72;101154.50;2079386;82;22428;-72
2023/02/19 10:53:11;;;;;;;;;;;;;;;17.89;63.40;101165.20;2092830;83;22549;-72
2023/02/19 10:59:29;;;;;;;;;;;;;;;17.86;63.64;101181.61;2094526;83;22915;-71
2023/02/19 11:02:30;;;;;;;;;;;;;;;17.89;63.38;101174.58;2094246;83;50916;-71
2023/02/19 11:05:33;;;;;;;;;;;;;;;17.92;63.24;101190.81;2116543;83;50689;-72
2023/02/19 11:08:51;;;;;;;;;;;;;;;17.91;63.25;101187.30;2130387;83;51511;-71
2023/02/19 11:11:53;;;;;;;;;;;;;;;17.86;63.18;101192.31;2137337;83;50408;-70
2023/02/19 11:14:54;;;;;;;;;;;;;;;17.86;63.29;101190.98;2135995;83;52338;-72
2023/02/19 11:17:57;;;;;;;;;;;;;;;17.84;63.41;101201.00;2138816;80;50404;-71
2023/02/19 11:20:59;;;;;;;;;;;;;;;17.82;63.50;101205.67;2207780;80;52597;-70
2023/02/19 11:24:02;;;;;;;;;;;;;;;17.81;63.45;101205.35;2208130;80;51572;-70
2023/02/19 11:27:05;;;;;;;;;;;;;;;17.83;63.38;101216.23;2202645;79;52462;-72
2023/02/19 11:30:25;;;;;;;;;;;;;;;17.81;63.39;101225.43;2280977;78;50459;-71
2023/02/19 11:33:27;;;;;;;;;;;;;;;17.80;63.31;101222.39;2299766;76;51552;-71
2023/02/19 11:36:35;;;;;;;;;;;;;;;17.76;63.39;101222.38;2318249;76;50421;-72
2023/02/19 11:39:36;;;;;;;;;;;;;;;17.81;63.27;101231.61;2260624;76;51500;-72
2023/02/19 11:42:43;;;;;;;;;;;;;;;17.83;63.15;101232.30;2321551;76;50282;-71
2023/02/19 11:45:52;;;;;;;;;;;;;;;17.93;62.79;101228.14;2324785;75;51484;-72
2023/02/19 11:48:55;;;;;;;;;;;;;;;17.96;62.61;101239.85;2294216;76;50425;-72
2023/02/19 11:51:58;;;;;;;;;;;;;;;18.04;62.29;101245.22;2294195;76;50122;-72
2023/02/19 11:55:04;;;;;;;;;;;;;;;18.03;62.28;101243.55;2311857;76;50790;-72
2023/02/19 11:58:14;;;;;;;;;;;;;;;18.02;62.36;101227.13;2297787;77;50323;-72
2023/02/19 12:01:20;;;;;;;;;;;;;;;18.00;62.43;101223.77;2280742;76;51477;-71
2023/02/19 12:04:29;;;;;;;;;;;;;;;17.94;62.71;101224.45;2308230;76;52609;-72
2023/02/19 12:07:48;;;;;;;;;;;;;;;17.91;62.78;101225.29;2275841;76;51827;-72
2023/02/19 12:10:54;;;;;;;;;;;;;;;17.89;62.88;101233.47;2275352;76;51509;-70
2023/02/19 12:14:14;;;;;;;;;;;;;;;17.88;62.76;101234.96;2287481;76;50829;-71
2023/02/19 12:17:35;;;;;;;;;;;;;;;17.86;62.78;101229.79;2224754;79;52608;-70
2023/02/19 12:20:41;;;;;;;;;;;;;;;17.89;62.60;101246.03;2266516;78;51565;-70
2023/02/19 12:23:50;;;;;;;;;;;;;;;17.94;62.40;101251.73;2286307;77;51404;-70
2023/02/19 12:26:59;;;;;;;;;;;;;;;17.97;62.27;101256.24;2286760;78;51433;-71
2023/02/19 12:30:18;;;;;;;;;;;;;;;18.01;62.06;101258.11;2259485;78;51424;-71
2023/02/19 12:33:39;;;;;;;;;;;;;;;17.93;62.33;101256.25;2287973;77;51649;-71
2023/02/19 12:36:55;;;;;;;;;;;;;;;17.91;62.35;101259.59;2290816;76;50454;-71
2023/02/19 12:40:10;;;;;;;;;;;;;;;17.84;62.57;101259.39;2270411;76;51554;-72
2023/02/19 12:43:21;;;;;;;;;;;;;;;17.82;62.68;101272.60;2287487;77;52734;-71
2023/02/19 12:46:33;;;;;;;;;;;;;;;17.81;62.54;101261.56;2262364;78;50678;-72
2023/02/19 12:49:36;;;;;;;;;;;;;;;17.80;62.48;101278.61;2284348;78;50378;-70
2023/02/19 12:52:39;;;;;;;;;;;;;;;17.81;62.51;101274.95;2285644;77;50497;-71
2023/02/19 12:55:42;;;;;;;;;;;;;;;17.85;62.14;101277.63;2263043;78;51242;-70
2023/02/19 12:58:52;;;;;;;;;;;;;;;17.95;61.72;101282.34;2286512;78;51550;-71
2023/02/19 13:02:01;;;;;;;;;;;;;;;17.96;61.59;101286.71;2284606;77;50192;-71
2023/02/19 13:05:16;;;;;;;;;;;;;;;17.94;61.66;101291.89;2257099;78;51525;-71
2023/02/19 13:08:38;;;;;;;;;;;;;;;17.92;61.83;101292.04;2262883;78;52455;-70
2023/02/19 13:11:41;;;;;;;;;;;;;;;17.97;61.55;101288.38;2280296;76;50193;-70
2023/02/19 13:14:44;;;;;;;;;;;;;;;17.99;61.53;101291.73;2345685;76;51572;-71
2023/02/19 13:17:50;;;;;;;;;;;;;;;17.95;61.72;101298.41;2345392;76;50687;-71
2023/02/19 13:20:54;;;;;;;;;;;;;;;17.91;61.89;101302.42;2254422;77;51932;-71
2023/02/19 13:23:58;;;;;;;;;;;;;;;17.89;61.98;101304.92;2249563;79;51641;-72
2023/02/19 13:27:19;;;;;;;;;;;;;;;17.86;62.12;101310.61;2249458;79;50659;-72
2023/02/19 13:30:25;;;;;;;;;;;;;;;17.90;61.78;101300.73;2251152;78;50027;-71
2023/02/19 13:33:32;;;;;;;;;;;;;;;17.91;61.58;101301.59;2249538;79;50793;-71
2023/02/19 13:36:33;;;;;;;;;;;;;;;17.93;61.45;101297.75;2249611;79;50789;-71
2023/02/19 13:39:35;;;;;;;;;;;;;;;17.96;61.44;101316.67;2256682;77;51407;-70
2023/02/19 13:42:36;;;;;;;;;;;;;;;17.99;61.24;101310.48;2316055;76;51614;-69
2023/02/19 13:45:39;;;;;;;;;;;;;;;17.98;61.27;101300.78;2281135;77;53264;-70
2023/02/19 13:48:42;;;;;;;;;;;;;;;17.96;61.28;101300.61;2286733;78;50718;-71
2023/02/19 13:51:48;;;;;;;;;;;;;;;17.93;61.63;101308.94;2251862;78;51601;-71
2023/02/19 13:54:50;;;;;;;;;;;;;;;17.89;61.74;101314.30;2249340;79;50789;-71
2023/02/19 13:57:51;;;;;;;;;;;;;;;17.87;61.75;101317.12;2226450;79;51258;-71
2023/02/19 14:00:53;;;;;;;;;;;;;;;17.81;61.94;101311.09;2260331;76;50291;-72
2023/02/19 14:03:57;;;;;;;;;;;;;;;17.86;61.70;101324.83;2318661;76;51609;-72
2023/02/19 14:07:06;;;;;;;;;;;;;;;17.93;61.47;101327.68;2330748;76;51558;-72
2023/02/19 14:10:12;;;;;;;;;;;;;;;17.93;61.22;101333.03;2277378;77;52922;-71
2023/02/19 14:13:15;;;;;;;;;;;;;;;17.93;61.15;101341.93;2226607;79;51505;-71
2023/02/19 14:16:34;;;;;;;;;;;;;;;17.92;61.29;101344.76;2245503;78;51515;-72
2023/02/19 14:19:43;;;;;;;;;;;;;;;17.88;61.28;101339.38;2248593;78;51542;-71
2023/02/19 14:25:54;;;;;;;;;;;;;;;17.75;61.83;101351.83;2291479;76;22433;-70
2023/02/19 14:28:56;;;;;;;;;;;;;;;17.72;61.95;101357.01;2249161;79;51597;-71
2023/02/19 14:31:59;;;;;;;;;;;;;;;17.72;61.79;101362.36;2258382;77;51460;-70
2023/02/19 14:35:01;;;;;;;;;;;;;;;17.71;61.72;101339.28;2262153;78;25125;-71
2023/02/19 14:38:02;;;;;;;;;;;;;;;17.77;61.62;101346.66;2249151;79;50595;-72
2023/02/19 14:41:04;;;;;;;;;;;;;;;17.76;61.28;101346.33;2272826;78;50411;-70
2023/02/19 14:44:06;;;;;;;;;;;;;;;17.90;60.80;101355.61;2286860;78;51555;-70
2023/02/19 14:47:08;;;;;;;;;;;;;;;17.97;60.48;101350.47;2286829;78;50470;-71
2023/02/19 14:50:15;;;;;;;;;;;;;;;17.97;60.51;101345.94;2284447;78;50589;-71
2023/02/19 14:53:16;;;;;;;;;;;;;;;18.01;60.36;101350.49;2287014;78;50414;-71
2023/02/19 14:56:22;;;;;;;;;;;;;;;17.97;60.39;101359.33;2286963;78;50749;-70
2023/02/19 14:59:27;;;;;;;;;;;;;;;18.00;60.37;101377.74;2260812;78;52483;-71
2023/02/19 15:02:30;;;;;;;;;;;;;;;17.99;60.31;101369.39;2260956;78;51469;-70
2023/02/19 15:05:32;;;;;;;;;;;;;;;17.94;60.69;101381.08;2306990;76;51714;-71
2023/02/19 15:08:37;;;;;;;;;;;;;;;17.94;60.54;101374.38;2298002;77;51586;-71
2023/02/19 15:11:39;;;;;;;;;;;;;;;17.85;60.95;101379.35;2262652;78;51111;-72
2023/02/19 15:14:41;;;;;;;;;;;;;;;17.84;60.89;101383.04;2262084;78;51521;-70
2023/02/19 15:17:42;;;;;;;;;;;;;;;17.83;60.74;101393.42;2286847;78;51548;-72
2023/02/19 15:20:44;;;;;;;;;;;;;;;17.93;60.30;101390.59;2263804;78;51384;-71
2023/02/19 15:23:45;;;;;;;;;;;;;;;17.90;60.33;101385.06;2202662;79;50831;-69
2023/02/19 15:26:53;;;;;;;;;;;;;;;17.96;60.13;101385.78;2249335;79;50426;-71
2023/02/19 15:29:52;;;;;;;;;;;;;;;17.93;60.23;101395.48;2250282;78;22399;-71
2023/02/19 15:32:57;;;;;;;;;;;;;;;17.97;60.01;101403.52;2253851;78;51480;-70
2023/02/19 15:35:59;;;;;;;;;;;;;;;17.94;60.15;101394.47;2263047;77;51154;-70
2023/02/19 15:39:01;;;;;;;;;;;;;;;17.91;60.22;101389.95;2285878;78;50785;-70
2023/02/19 15:42:03;;;;;;;;;;;;;;;17.87;60.46;101394.76;2249172;79;50267;-70
2023/02/19 15:45:09;;;;;;;;;;;;;;;17.82;60.57;101399.75;2249360;79;52362;-71
2023/02/19 15:48:12;;;;;;;;;;;;;;;17.73;60.89;101402.87;2201227;79;51733;-71
2023/02/19 15:51:15;;;;;;;;;;;;;;;17.72;60.87;101407.03;2277545;78;50372;-72
2023/02/19 15:54:25;;;;;;;;;;;;;;;17.73;60.68;101412.23;2285645;77;49982;-71
2023/02/19 15:57:28;;;;;;;;;;;;;;;17.88;60.20;101410.31;2286851;78;51421;-72
2023/02/19 16:00:37;;;;;;;;;;;;;;;17.90;59.95;101418.53;2260528;78;52418;-70
2023/02/19 16:03:39;;;;;;;;;;;;;;;17.97;59.84;101420.91;2291409;76;52676;-71
2023/02/19 16:06:56;;;;;;;;;;;;;;;17.95;59.83;101426.09;2298182;76;50279;-72
2023/02/19 16:10:16;;;;;;;;;;;;;;;17.94;59.94;101430.61;2293383;77;51496;-71
2023/02/19 16:13:19;;;;;;;;;;;;;;;17.98;59.78;101438.68;2258481;78;50817;-71
2023/02/19 16:16:25;;;;;;;;;;;;;;;17.97;59.77;101434.81;2226085;79;51754;-70
2023/02/19 16:19:27;;;;;;;;;;;;;;;17.96;59.73;101443.34;2248934;79;51540;-71
2023/02/19 16:22:30;;;;;;;;;;;;;;;17.94;59.83;101454.71;2270541;77;52229;-70
2023/02/19 16:25:39;;;;;;;;;;;;;;;17.85;60.06;101462.34;2286779;78;51551;-71
2023/02/19 16:28:40;;;;;;;;;;;;;;;17.78;60.21;101455.94;2262925;78;51156;-72
2023/02/19 16:31:44;;;;;;;;;;;;;;;17.81;60.11;101475.72;2282509;76;50218;-72
2023/02/19 16:34:46;;;;;;;;;;;;;;;17.86;60.18;101474.75;2316668;76;50329;-72
2023/02/19 16:37:49;;;;;;;;;;;;;;;17.92;59.79;101471.42;2326358;76;51509;-72
2023/02/19 16:40:54;;;;;;;;;;;;;;;17.93;59.72;101475.80;2298072;76;52501;-72
2023/02/19 16:43:55;;;;;;;;;;;;;;;17.86;59.86;101481.45;2286685;78;50313;-73
2023/02/19 16:46:57;;;;;;;;;;;;;;;17.94;59.71;101488.19;2263116;78;50552;-70
2023/02/19 16:50:00;;;;;;;;;;;;;;;17.98;59.53;101486.88;2286501;77;50456;-69
2023/02/19 16:53:02;;;;;;;;;;;;;;;18.00;59.35;101492.89;2234512;78;52448;-71
2023/02/19 16:56:03;;;;;;;;;;;;;;;18.00;59.32;101510.80;2249482;79;50790;-70
2023/02/19 16:59:10;;;;;;;;;;;;;;;17.96;59.28;101503.59;2249017;79;50460;-71
2023/02/19 17:02:10;;;;;;;;;;;;;;;17.83;59.63;101502.67;2267972;76;22363;-70
2023/02/19 17:05:11;;;;;;;;;;;;;;;17.77;59.97;101509.11;2309605;76;51030;-71
2023/02/19 17:08:30;;;;;;;;;;;;;;;17.80;59.80;101510.16;2345197;76;50420;-72
2023/02/19 17:11:31;;;;;;;;;;;;;;;17.86;59.65;101508.22;2322097;76;50302;-71
2023/02/19 17:14:33;;;;;;;;;;;;;;;17.93;59.42;101513.29;2249255;79;50780;-71
2023/02/19 17:17:35;;;;;;;;;;;;;;;17.97;59.25;101514.64;2202514;79;52721;-72
2023/02/19 17:20:36;;;;;;;;;;;;;;;17.99;59.21;101520.68;2226120;79;51511;-72
2023/02/19 17:23:38;;;;;;;;;;;;;;;17.97;59.16;101511.95;2251315;78;51587;-71
2023/02/19 17:26:39;;;;;;;;;;;;;;;17.94;59.16;101508.27;2249394;79;50732;-72
2023/02/19 17:29:41;;;;;;;;;;;;;;;17.95;59.11;101517.96;2202002;79;51394;-71
2023/02/19 17:32:42;;;;;;;;;;;;;;;17.93;59.13;101524.47;2256827;77;50359;-72
2023/02/19 17:35:44;;;;;;;;;;;;;;;17.92;59.10;101531.67;2263190;78;50616;-72
2023/02/19 17:38:46;;;;;;;;;;;;;;;17.92;58.90;101522.30;2286484;78;49923;-71
2023/02/19 17:41:47;;;;;;;;;;;;;;;17.89;58.88;101524.47;2235125;78;51242;-72
2023/02/19 17:44:50;;;;;;;;;;;;;;;17.83;59.11;101525.94;2262867;78;50718;-72
2023/02/19 17:47:52;;;;;;;;;;;;;;;17.85;58.99;101527.94;2283512;77;51543;-71
2023/02/19 17:50:53;;;;;;;;;;;;;;;17.93;58.87;101531.16;2285689;78;50770;-73
2023/02/19 17:53:55;;;;;;;;;;;;;;;17.94;58.67;101533.70;2241874;76;48838;-71
2023/02/19 17:56:57;;;;;;;;;;;;;;;17.97;58.48;101532.55;2312020;76;51533;-71
2023/02/19 17:59:59;;;;;;;;;;;;;;;17.99;58.25;101540.77;2287338;78;50224;-71
2023/02/19 18:03:01;;;;;;;;;;;;;;;18.01;58.10;101549.48;2299240;76;51589;-71
2023/02/19 18:06:02;;;;;;;;;;;;;;;17.99;58.18;101543.95;2332949;76;50647;-71
2023/02/19 18:09:04;;;;;;;;;;;;;;;18.00;58.20;101554.48;2310777;76;51556;-71
2023/02/19 18:12:06;;;;;;;;;;;;;;;17.92;58.75;101553.09;2286621;78;50644;-71
2023/02/19 18:15:08;;;;;;;;;;;;;;;17.96;58.63;101550.45;2264199;78;50120;-71
2023/02/19 18:18:10;;;;;;;;;;;;;;;17.96;58.69;101554.98;2246593;77;49701;-71
2023/02/19 18:21:11;;;;;;;;;;;;;;;17.92;58.75;101555.77;2279676;78;49959;-72
2023/02/19 18:24:13;;;;;;;;;;;;;;;17.88;58.83;101558.91;2227095;79;51524;-72
2023/02/19 18:27:14;;;;;;;;;;;;;;;17.91;58.87;101563.98;2227550;79;50292;-71
2023/02/19 18:30:17;;;;;;;;;;;;;;;17.89;58.97;101564.12;2260100;78;52593;-71
2023/02/19 18:33:19;;;;;;;;;;;;;;;17.93;58.88;101565.50;2268313;76;50348;-71
2023/02/19 18:36:21;;;;;;;;;;;;;;;17.96;58.83;101571.05;2299292;76;49947;-72
2023/02/19 18:39:22;;;;;;;;;;;;;;;17.97;58.75;101568.19;2256629;77;50751;-77
2023/02/19 18:42:24;;;;;;;;;;;;;;;17.96;58.94;101568.36;2254441;76;51320;-75
2023/02/19 18:45:26;;;;;;;;;;;;;;;17.87;59.44;101564.77;2311325;76;50336;-73
2023/02/19 18:48:28;;;;;;;;;;;;;;;17.78;59.98;101581.75;2286056;77;51663;-72
2023/02/19 18:51:29;;;;;;;;;;;;;;;17.73;60.36;101573.34;2267157;76;50352;-73
2023/02/19 18:54:31;;;;;;;;;;;;;;;17.72;60.49;101579.67;2243594;76;52342;-74
2023/02/19 18:57:32;;;;;;;;;;;;;;;17.66;60.82;101582.47;2278313;76;50638;-73
2023/02/19 19:00:34;;;;;;;;;;;;;;;17.71;60.73;101577.50;2273778;77;51428;-73
2023/02/19 19:03:36;;;;;;;;;;;;;;;17.72;60.79;101584.52;2261144;77;51593;-74
2023/02/19 19:06:37;;;;;;;;;;;;;;;17.75;60.88;101584.71;2324157;76;52925;-73